Airfield :
LOGIN :

Register | Disclaimer

   EN    FR    IT 

 










Legend :    VFR   Marginal VFR   IFR   Intensive IFR   Very Intensive IFR
Visi :
Ceiling :
>= 8 km
>= 3000ft
5 to 8 km
1000 to 3000 ft
1500m to 5 km
500 to 1000 ft
800 to 1500m
200 to 500 ft
< 800m
< 200 ft
Symbols :   Thunderstorms  Fog  Heavy snow  Heavy precipitations  Wind > 20 kt
SIGMETs :     Misc.  Thunderstorms  Icing  Turbulence  Mountain Waves  Volcanic Ashes






- Airport Elevation : 59 ft
- IATA code : TSF


LIPH - Treviso

CURRENT METAR :
  • 070220Z AUTO VRB02KT 6000 NCD 01/01 Q1013

EXPIRED METARs :
  • 070150Z AUTO 30003KT 260V330 5000 BR NCD 02/02 Q1014
  • 070120Z AUTO 24003KT 3600 BR SCT014/// 02/02 Q1014
  • 070050Z AUTO VRB02KT 3800 BR OVC014/// 03/03 Q1014
  • 070020Z AUTO 23002KT 0900 R07/1100U FG OVC013/// 02/02 Q1014
  • 062350Z AUTO 21002KT 0150 R07/0650N FG FEW003/// BKN013/// 02/02 Q1014

TAF TAF LIPH
Valid from the 07 at 00:00 until the 08 at 00:00 UTC


062300Z 0700/0724 VRB04KT 3000 BR FEW006
TEMPO 0700/0707 0600 FG
BECMG 0707/0709 CAVOK



MET'MAP, your aeronautical weather chart ! - Copyright ORBIFLY December 2007 - Disclaimer

ORBIFLY MET'MAP TEAM :

Programming & Development : Alexandra Zaïnal
Original concept : Baudouin d'Aumeries
Technical & hardware support : Manuel Goepfert
Assistance : Marc-Olivier Méhu




SOURCES & CREDITS :

   NOAA